La Quinta, CA (92247)

2:41 AM PDT on August 26, 2016 (GMT -0700)
La Quinta Desert Club Estates | | Change Station

Elev 46 ft 33.68 °N, 116.29 °W | Updated 8 minutes ago

Clear
Clear
76.8 °F
Feels Like 78 °F
N
0.0
Wind Variable Wind from ESE

Today
High -- | Low -- °F
--% Chance of Precip.
Yesterday
High -- | Low -- °F
Precip. -- in
Pressure 29.76 in
Visibility 10.0 miles
Clouds Clear
Heat Index 78 °F
Dew Point 56 °F
Humidity 49%
Rainfall 0.00 in
Snow Depth Not available.
6:15 AM 7:17 PM
Last Quarter, 36% visible
METAR KTRM 260852Z AUTO 05004KT 10SM CLR 28/09 A2975 RMK AO2 SLP077 T02780089 51006 TSNO
Pressure 29.76 in
Visibility 10.0 miles
Clouds Clear
Heat Index 78 °F
Dew Point 56 °F
Humidity 49%
Rainfall 0.00 in
Snow Depth Not available.
6:15 AM 7:17 PM
Last Quarter, 36% visible
METAR KTRM 260852Z AUTO 05004KT 10SM CLR 28/09 A2975 RMK AO2 SLP077 T02780089 51006 TSNO

10-Day Weather Forecast

Almanac

Astronomy

Aug. 26, 2016 Rise Set
Actual Time
Civil Twilight
Nautical Twilight
Astronomical Twilight
Moon
Length of Visible Light
Length of Day
Tomorrow will be .
, % of the Moon is Illuminated

Today's Extremes

State Highs State Lows

Community

WunderPhotos

Upload Photos

1,935,069 photos uploaded!

WunderBlog® & News

Nearby

Air Quality

  Air Quality AQ Index Pollutant
Not available.

Snow Depth

Station Depth Elevation

Earthquake Activity

City Distance Mag. Time & Date
Minimum magnitude displayed is 2.5.

Coastal Water Temperatures

Place Temperature

Stations

Nearby Weather Stations

Station Location Temp. Windchill Dew Point Humidity Wind Precip. Elev Updated Type
                   

Watches & Warnings

There are currently no watches in effect.